Crews, Texas
Current Conditions -  °F | °C
As of 7:58 AM on Saturday 25 Oct 2014 (Local Time) from KDYS Reporting Station
Clear Clear  
Wind Chill: 67°   Ceiling: Unl
Heat Index: 67°   Visibility: 10mi
Dew Point: 58°   Wind: 7mph
Humidity: 73%   Direction: 200°SSW
Pressure: 30.13"   Gusts: NA
Location:  31.975°N, 99.9034°W
Report Text: KDYS 251258Z AUTO 20006KT 10SM CLR 19/14 A3013 RMK AO2 SLP170 T01930143 $
Loading
Personal Weather Stations






























Interactive Weather Map
Tropical Storm Tracking
New forecast layout! Learn more

10-Day Weather Forecast

Advertisements
Track Severe Weather on mobile